sensor_id;sensor_type;location;lat;lon;timestamp;pressure;altitude;pressure_sealevel;temperature;humidity
10176;BME280;18221;38.704;0.152;2023-08-24T00:12:02;98799.31;;;34.50;26.22
10176;BME280;18221;38.704;0.152;2023-08-24T00:14:30;98792.47;;;34.47;26.18
10176;BME280;18221;38.704;0.152;2023-08-24T00:16:58;98798.28;;;34.46;26.49
10176;BME280;18221;38.704;0.152;2023-08-24T00:19:26;98787.84;;;34.43;27.07
10176;BME280;18221;38.704;0.152;2023-08-24T00:21:54;98797.22;;;34.42;27.18
10176;BME280;18221;38.704;0.152;2023-08-24T00:24:22;98785.78;;;34.35;26.88
10176;BME280;18221;38.704;0.152;2023-08-24T00:26:50;98785.50;;;34.36;26.72
10176;BME280;18221;38.704;0.152;2023-08-24T00:29:20;98786.28;;;34.37;26.74
10176;BME280;18221;38.704;0.152;2023-08-24T00:31:49;98792.63;;;34.37;27.04
10176;BME280;18221;38.704;0.152;2023-08-24T00:34:17;98792.94;;;34.36;26.49
10176;BME280;18221;38.704;0.152;2023-08-24T00:36:45;98794.03;;;34.35;27.01
10176;BME280;18221;38.704;0.152;2023-08-24T00:39:13;98781.09;;;34.35;27.10
10176;BME280;18221;38.704;0.152;2023-08-24T00:41:42;98788.00;;;34.33;27.14
10176;BME280;18221;38.704;0.152;2023-08-24T00:44:11;98774.50;;;34.31;27.04
10176;BME280;18221;38.704;0.152;2023-08-24T00:46:40;98779.81;;;34.28;27.05
10176;BME280;18221;38.704;0.152;2023-08-24T00:49:09;98773.50;;;34.27;26.98
10176;BME280;18221;38.704;0.152;2023-08-24T00:51:37;98778.25;;;34.22;27.68
10176;BME280;18221;38.704;0.152;2023-08-24T00:54:05;98778.94;;;34.13;28.13
10176;BME280;18221;38.704;0.152;2023-08-24T00:56:33;98781.09;;;34.17;28.02
10176;BME280;18221;38.704;0.152;2023-08-24T00:59:02;98778.09;;;34.13;28.34
10176;BME280;18221;38.704;0.152;2023-08-24T01:01:30;98780.94;;;34.08;28.54
10176;BME280;18221;38.704;0.152;2023-08-24T01:03:59;98776.00;;;34.05;28.09
10176;BME280;18221;38.704;0.152;2023-08-24T01:06:29;98771.91;;;34.02;28.45
10176;BME280;18221;38.704;0.152;2023-08-24T01:08:57;98768.19;;;33.93;29.41
10176;BME280;18221;38.704;0.152;2023-08-24T01:11:40;98764.84;;;33.96;29.38
10176;BME280;18221;38.704;0.152;2023-08-24T01:14:21;98769.22;;;33.97;29.58
10176;BME280;18221;38.704;0.152;2023-08-24T01:16:58;98763.25;;;33.90;30.28
10176;BME280;18221;38.704;0.152;2023-08-24T01:19:39;98766.00;;;33.90;30.05
10176;BME280;18221;38.704;0.152;2023-08-24T01:22:27;98763.56;;;33.89;29.39
10176;BME280;18221;38.704;0.152;2023-08-24T01:25:06;98767.19;;;33.84;29.23
10176;BME280;18221;38.704;0.152;2023-08-24T01:27:38;98771.66;;;33.80;29.22
10176;BME280;18221;38.704;0.152;2023-08-24T01:30:09;98771.16;;;33.78;28.82
10176;BME280;18221;38.704;0.152;2023-08-24T01:32:40;98763.16;;;33.77;28.61
10176;BME280;18221;38.704;0.152;2023-08-24T01:35:10;98765.63;;;33.78;28.33
10176;BME280;18221;38.704;0.152;2023-08-24T01:37:39;98764.00;;;33.77;28.36
10176;BME280;18221;38.704;0.152;2023-08-24T01:40:13;98766.53;;;33.74;27.70
10176;BME280;18221;38.704;0.152;2023-08-24T01:42:51;98764.06;;;33.72;28.00
10176;BME280;18221;38.704;0.152;2023-08-24T01:45:28;98767.88;;;33.76;28.02
10176;BME280;18221;38.704;0.152;2023-08-24T01:48:00;98764.66;;;33.69;28.03
10176;BME280;18221;38.704;0.152;2023-08-24T01:50:30;98760.84;;;33.65;27.49
10176;BME280;18221;38.704;0.152;2023-08-24T01:52:58;98766.13;;;33.62;27.84
10176;BME280;18221;38.704;0.152;2023-08-24T01:55:27;98762.53;;;33.61;28.09
10176;BME280;18221;38.704;0.152;2023-08-24T01:57:57;98753.69;;;33.64;28.47
10176;BME280;18221;38.704;0.152;2023-08-24T02:00:25;98749.59;;;33.62;28.69
10176;BME280;18221;38.704;0.152;2023-08-24T02:02:54;98753.50;;;33.61;29.13
10176;BME280;18221;38.704;0.152;2023-08-24T02:05:22;98753.25;;;33.57;29.18
10176;BME280;18221;38.704;0.152;2023-08-24T02:07:53;98758.19;;;33.60;28.99
10176;BME280;18221;38.704;0.152;2023-08-24T02:10:21;98754.91;;;33.58;28.55
10176;BME280;18221;38.704;0.152;2023-08-24T02:12:49;98749.72;;;33.51;28.43
10176;BME280;18221;38.704;0.152;2023-08-24T02:15:19;98749.47;;;33.48;28.23
10176;BME280;18221;38.704;0.152;2023-08-24T02:17:47;98758.28;;;33.50;28.07
10176;BME280;18221;38.704;0.152;2023-08-24T02:20:18;98755.53;;;33.50;28.12
10176;BME280;18221;38.704;0.152;2023-08-24T02:22:49;98749.72;;;33.51;28.21
10176;BME280;18221;38.704;0.152;2023-08-24T02:25:17;98749.47;;;33.48;28.19
10176;BME280;18221;38.704;0.152;2023-08-24T02:27:45;98751.13;;;33.49;28.01
10176;BME280;18221;38.704;0.152;2023-08-24T02:30:14;98744.28;;;33.46;28.35
10176;BME280;18221;38.704;0.152;2023-08-24T02:32:44;98745.69;;;33.44;28.01
10176;BME280;18221;38.704;0.152;2023-08-24T02:35:12;98740.19;;;33.44;28.19
10176;BME280;18221;38.704;0.152;2023-08-24T02:37:40;98734.97;;;33.42;27.82
10176;BME280;18221;38.704;0.152;2023-08-24T02:40:09;98736.59;;;33.43;27.76
10176;BME280;18221;38.704;0.152;2023-08-24T02:42:37;98735.78;;;33.43;27.27
10176;BME280;18221;38.704;0.152;2023-08-24T02:45:07;98741.28;;;33.43;27.58
10176;BME280;18221;38.704;0.152;2023-08-24T02:47:35;98738.59;;;33.38;27.14
10176;BME280;18221;38.704;0.152;2023-08-24T02:50:06;98739.66;;;33.42;27.58
10176;BME280;18221;38.704;0.152;2023-08-24T02:52:34;98731.69;;;33.40;27.34
10176;BME280;18221;38.704;0.152;2023-08-24T02:55:02;98734.81;;;33.34;27.10
10176;BME280;18221;38.704;0.152;2023-08-24T02:57:34;98735.97;;;33.28;27.19
10176;BME280;18221;38.704;0.152;2023-08-24T03:00:04;98736.22;;;33.31;26.76
10176;BME280;18221;38.704;0.152;2023-08-24T03:02:33;98733.22;;;33.28;26.31
10176;BME280;18221;38.704;0.152;2023-08-24T03:05:02;98732.31;;;33.32;26.58
10176;BME280;18221;38.704;0.152;2023-08-24T03:07:30;98729.69;;;33.22;26.37
10176;BME280;18221;38.704;0.152;2023-08-24T03:09:59;98735.19;;;33.22;26.63
10176;BME280;18221;38.704;0.152;2023-08-24T03:12:27;98741.00;;;33.21;26.52
10176;BME280;18221;38.704;0.152;2023-08-24T03:14:55;98735.50;;;33.21;26.32
10176;BME280;18221;38.704;0.152;2023-08-24T03:17:23;98732.75;;;33.21;25.82
10176;BME280;18221;38.704;0.152;2023-08-24T03:19:52;98725.59;;;33.20;25.72
10176;BME280;18221;38.704;0.152;2023-08-24T03:22:21;98727.00;;;33.17;25.52
10176;BME280;18221;38.704;0.152;2023-08-24T03:24:49;98728.41;;;33.15;25.70
10176;BME280;18221;38.704;0.152;2023-08-24T03:27:17;98732.88;;;33.11;25.81
10176;BME280;18221;38.704;0.152;2023-08-24T03:29:45;98739.47;;;33.10;25.49
10176;BME280;18221;38.704;0.152;2023-08-24T03:32:13;98731.22;;;33.10;25.76
10176;BME280;18221;38.704;0.152;2023-08-24T03:34:41;98735.56;;;33.16;25.49
10176;BME280;18221;38.704;0.152;2023-08-24T03:37:10;98730.06;;;33.16;25.43
10176;BME280;18221;38.704;0.152;2023-08-24T03:39:40;98732.31;;;33.14;25.73
10176;BME280;18221;38.704;0.152;2023-08-24T03:42:08;98731.53;;;33.08;25.31
10176;BME280;18221;38.704;0.152;2023-08-24T03:44:37;98728.78;;;33.08;25.15
10176;BME280;18221;38.704;0.152;2023-08-24T03:47:05;98727.38;;;33.11;24.79
10176;BME280;18221;38.704;0.152;2023-08-24T03:49:33;98729.56;;;33.09;24.86
10176;BME280;18221;38.704;0.152;2023-08-24T03:52:00;98727.97;;;33.08;24.54
10176;BME280;18221;38.704;0.152;2023-08-24T03:54:29;98726.31;;;33.07;24.75
10176;BME280;18221;38.704;0.152;2023-08-24T03:56:58;98731.47;;;33.13;24.19
10176;BME280;18221;38.704;0.152;2023-08-24T03:59:26;98732.06;;;33.10;24.43
10176;BME280;18221;38.704;0.152;2023-08-24T04:01:54;98733.47;;;33.08;24.49
10176;BME280;18221;38.704;0.152;2023-08-24T04:04:26;98728.78;;;33.08;24.70
10176;BME280;18221;38.704;0.152;2023-08-24T04:06:54;98731.22;;;33.10;24.27
10176;BME280;18221;38.704;0.152;2023-08-24T04:09:22;98729.53;;;33.14;24.22
10176;BME280;18221;38.704;0.152;2023-08-24T04:11:50;98735.97;;;33.04;24.19
10176;BME280;18221;38.704;0.152;2023-08-24T04:14:19;98734.03;;;33.05;24.16
10176;BME280;18221;38.704;0.152;2023-08-24T04:16:47;98735.69;;;33.06;24.36
10176;BME280;18221;38.704;0.152;2023-08-24T04:19:15;98740.09;;;33.02;23.83
10176;BME280;18221;38.704;0.152;2023-08-24T04:21:43;98742.28;;;33.05;23.98
10176;BME280;18221;38.704;0.152;2023-08-24T04:24:13;98727.97;;;33.03;24.01
10176;BME280;18221;38.704;0.152;2023-08-24T04:26:41;98734.03;;;33.05;23.99
10176;BME280;18221;38.704;0.152;2023-08-24T04:29:09;98723.84;;;33.05;23.82
10176;BME280;18221;38.704;0.152;2023-08-24T04:31:38;98731.28;;;33.05;23.81
10176;BME280;18221;38.704;0.152;2023-08-24T04:34:08;98737.84;;;33.04;24.27
10176;BME280;18221;38.704;0.152;2023-08-24T04:36:37;98732.34;;;33.04;24.15
10176;BME280;18221;38.704;0.152;2023-08-24T04:39:05;98724.41;;;33.02;23.49
10176;BME280;18221;38.704;0.152;2023-08-24T04:41:33;98731.28;;;33.05;23.62
10176;BME280;18221;38.704;0.152;2023-08-24T04:44:02;98734.59;;;33.02;23.53
10176;BME280;18221;38.704;0.152;2023-08-24T04:46:30;98740.38;;;33.00;23.37
10176;BME280;18221;38.704;0.152;2023-08-24T04:48:59;98741.22;;;33.01;23.55
10176;BME280;18221;38.704;0.152;2023-08-24T04:51:27;98744.53;;;32.97;23.75
10176;BME280;18221;38.704;0.152;2023-08-24T04:53:55;98745.66;;;32.96;23.46
10176;BME280;18221;38.704;0.152;2023-08-24T04:56:23;98742.91;;;32.96;23.48
10176;BME280;18221;38.704;0.152;2023-08-24T04:58:54;98747.00;;;32.99;23.38
10176;BME280;18221;38.704;0.152;2023-08-24T05:01:23;98749.47;;;33.01;23.27
10176;BME280;18221;38.704;0.152;2023-08-24T05:03:51;98750.00;;;33.03;23.00
10176;BME280;18221;38.704;0.152;2023-08-24T05:06:21;98740.09;;;33.02;23.12
10176;BME280;18221;38.704;0.152;2023-08-24T05:08:49;98748.34;;;33.02;23.63
10176;BME280;18221;38.704;0.152;2023-08-24T05:11:19;98741.75;;;33.03;23.23
10176;BME280;18221;38.704;0.152;2023-08-24T05:13:47;98754.34;;;33.04;23.46
10176;BME280;18221;38.704;0.152;2023-08-24T05:16:15;98752.75;;;33.03;23.26
10176;BME280;18221;38.704;0.152;2023-08-24T05:18:44;98750.25;;;33.01;23.13
10176;BME280;18221;38.704;0.152;2023-08-24T05:21:12;98751.66;;;32.98;23.00
10176;BME280;18221;38.704;0.152;2023-08-24T05:23:42;98755.59;;;32.92;22.78
10176;BME280;18221;38.704;0.152;2023-08-24T05:26:10;98752.28;;;32.95;23.00
10176;BME280;18221;38.704;0.152;2023-08-24T05:28:38;98749.22;;;32.97;23.01
10176;BME280;18221;38.704;0.152;2023-08-24T05:31:05;98758.56;;;32.96;22.53
10176;BME280;18221;38.704;0.152;2023-08-24T05:33:33;98756.13;;;32.94;22.47
10176;BME280;18221;38.704;0.152;2023-08-24T05:36:01;98758.63;;;32.91;22.77
10176;BME280;18221;38.704;0.152;2023-08-24T05:38:29;98757.84;;;32.85;22.79
10176;BME280;18221;38.704;0.152;2023-08-24T05:40:59;98761.69;;;32.89;22.75
10176;BME280;18221;38.704;0.152;2023-08-24T05:43:27;98761.09;;;32.92;22.47
10176;BME280;18221;38.704;0.152;2023-08-24T05:45:56;98752.28;;;32.90;22.35
10176;BME280;18221;38.704;0.152;2023-08-24T05:48:24;98757.78;;;32.95;22.28
10176;BME280;18221;38.704;0.152;2023-08-24T05:50:52;98761.91;;;32.93;22.42
10176;BME280;18221;38.704;0.152;2023-08-24T05:53:20;98767.66;;;32.96;22.70
10176;BME280;18221;38.704;0.152;2023-08-24T05:55:48;98770.13;;;32.98;22.44
10176;BME280;18221;38.704;0.152;2023-08-24T05:58:17;98771.53;;;32.95;22.75
10176;BME280;18221;38.704;0.152;2023-08-24T06:00:45;98757.78;;;32.95;22.51
10176;BME280;18221;38.704;0.152;2023-08-24T06:03:13;98767.59;;;33.02;22.54
10176;BME280;18221;38.704;0.152;2023-08-24T06:05:41;98764.00;;;33.06;22.36
10176;BME280;18221;38.704;0.152;2023-08-24T06:08:09;98763.47;;;33.04;22.05
10176;BME280;18221;38.704;0.152;2023-08-24T06:10:37;98773.63;;;33.04;21.44
10176;BME280;18221;38.704;0.152;2023-08-24T06:13:05;98775.81;;;33.07;21.68
10176;BME280;18221;38.704;0.152;2023-08-24T06:15:34;98770.63;;;33.05;21.44
10176;BME280;18221;38.704;0.152;2023-08-24T06:18:03;98768.69;;;33.06;21.60
10176;BME280;18221;38.704;0.152;2023-08-24T06:20:31;98776.91;;;33.11;21.77
10176;BME280;18221;38.704;0.152;2023-08-24T06:22:59;98770.25;;;33.12;21.71
10176;BME280;18221;38.704;0.152;2023-08-24T06:25:28;98772.81;;;33.08;21.97
10176;BME280;18221;38.704;0.152;2023-08-24T06:27:57;98773.59;;;33.09;22.43
10176;BME280;18221;38.704;0.152;2023-08-24T06:30:27;98769.16;;;33.13;22.31
10176;BME280;18221;38.704;0.152;2023-08-24T06:32:56;98770.22;;;33.17;22.01
10176;BME280;18221;38.704;0.152;2023-08-24T06:35:24;98770.50;;;33.15;22.20
10176;BME280;18221;38.704;0.152;2023-08-24T06:37:52;98777.66;;;33.16;22.33
10176;BME280;18221;38.704;0.152;2023-08-24T06:40:20;98777.06;;;33.19;22.43
10176;BME280;18221;38.704;0.152;2023-08-24T06:42:48;98778.91;;;33.29;22.32
10176;BME280;18221;38.704;0.152;2023-08-24T06:45:16;98787.09;;;33.34;22.29
10176;BME280;18221;38.704;0.152;2023-08-24T06:47:45;98777.44;;;33.36;22.26
10176;BME280;18221;38.704;0.152;2023-08-24T06:50:14;98787.28;;;33.42;22.81
10176;BME280;18221;38.704;0.152;2023-08-24T06:52:43;98783.63;;;33.47;22.43
10176;BME280;18221;38.704;0.152;2023-08-24T06:55:11;98786.59;;;33.56;22.49
10176;BME280;18221;38.704;0.152;2023-08-24T06:57:39;98784.22;;;33.68;22.54
10176;BME280;18221;38.704;0.152;2023-08-24T07:00:09;98779.41;;;33.78;22.36
10176;BME280;18221;38.704;0.152;2023-08-24T07:02:41;98782.03;;;33.88;22.46
10176;BME280;18221;38.704;0.152;2023-08-24T07:05:09;98783.53;;;33.99;22.20
10176;BME280;18221;38.704;0.152;2023-08-24T07:07:40;98784.81;;;34.07;22.07
10176;BME280;18221;38.704;0.152;2023-08-24T07:10:10;98788.91;;;34.09;22.25
10176;BME280;18221;38.704;0.152;2023-08-24T07:12:38;98785.50;;;34.18;22.30
10176;BME280;18221;38.704;0.152;2023-08-24T07:15:08;98792.56;;;34.24;22.03
10176;BME280;18221;38.704;0.152;2023-08-24T07:17:36;98795.78;;;34.31;21.07
10176;BME280;18221;38.704;0.152;2023-08-24T07:20:05;98797.19;;;34.47;21.18
10176;BME280;18221;38.704;0.152;2023-08-24T07:22:35;98795.22;;;34.66;20.64
10176;BME280;18221;38.704;0.152;2023-08-24T07:25:05;98798.56;;;34.95;20.37
10176;BME280;18221;38.704;0.152;2023-08-24T07:27:34;98805.31;;;35.21;19.94
10176;BME280;18221;38.704;0.152;2023-08-24T07:30:04;98801.25;;;35.60;19.52
10176;BME280;18221;38.704;0.152;2023-08-24T07:32:33;98807.56;;;36.01;19.19
10176;BME280;18221;38.704;0.152;2023-08-24T07:35:01;98800.50;;;36.44;19.24
10176;BME280;18221;38.704;0.152;2023-08-24T07:37:30;98801.00;;;36.91;17.87
10176;BME280;18221;38.704;0.152;2023-08-24T07:39:58;98803.31;;;37.50;17.53
10176;BME280;18221;38.704;0.152;2023-08-24T07:42:28;98802.03;;;38.13;17.27
10176;BME280;18221;38.704;0.152;2023-08-24T07:44:56;98801.06;;;38.69;16.16
10176;BME280;18221;38.704;0.152;2023-08-24T07:47:24;98801.16;;;39.15;15.55
10176;BME280;18221;38.704;0.152;2023-08-24T07:49:52;98810.69;;;39.52;15.88
10176;BME280;18221;38.704;0.152;2023-08-24T07:52:20;98809.00;;;39.68;15.48
10176;BME280;18221;38.704;0.152;2023-08-24T07:54:53;98804.28;;;39.89;15.54
10176;BME280;18221;38.704;0.152;2023-08-24T07:57:21;98811.47;;;39.90;16.13
10176;BME280;18221;38.704;0.152;2023-08-24T07:59:51;98812.63;;;39.89;15.77
10176;BME280;18221;38.704;0.152;2023-08-24T08:02:20;98818.50;;;39.59;16.06
10176;BME280;18221;38.704;0.152;2023-08-24T08:04:48;98817.78;;;39.32;16.64
10176;BME280;18221;38.704;0.152;2023-08-24T08:07:16;98822.06;;;39.13;17.09
10176;BME280;18221;38.704;0.152;2023-08-24T08:09:44;98821.66;;;38.76;17.47
10176;BME280;18221;38.704;0.152;2023-08-24T08:12:12;98815.63;;;38.40;17.70
10176;BME280;18221;38.704;0.152;2023-08-24T08:14:40;98817.69;;;38.26;18.00
10176;BME280;18221;38.704;0.152;2023-08-24T08:17:09;98816.69;;;38.13;18.76
10176;BME280;18221;38.704;0.152;2023-08-24T08:19:37;98814.78;;;37.66;19.05
10176;BME280;18221;38.704;0.152;2023-08-24T08:22:06;98824.88;;;37.70;19.04
10176;BME280;18221;38.704;0.152;2023-08-24T08:24:34;98826.81;;;37.61;20.07
10176;BME280;18221;38.704;0.152;2023-08-24T08:27:02;98817.97;;;37.51;20.10
10176;BME280;18221;38.704;0.152;2023-08-24T08:29:30;98814.53;;;37.45;20.97
10176;BME280;18221;38.704;0.152;2023-08-24T08:31:57;98815.28;;;37.37;21.30
10176;BME280;18221;38.704;0.152;2023-08-24T08:34:27;98816.09;;;37.38;21.48
10176;BME280;18221;38.704;0.152;2023-08-24T08:36:55;98814.44;;;37.28;21.13
10176;BME280;18221;38.704;0.152;2023-08-24T08:39:23;98816.63;;;37.09;22.12
10176;BME280;18221;38.704;0.152;2023-08-24T08:41:51;98818.00;;;36.98;22.14
10176;BME280;18221;38.704;0.152;2023-08-24T08:44:20;98819.56;;;37.13;21.62
10176;BME280;18221;38.704;0.152;2023-08-24T08:46:50;98819.47;;;37.26;21.33
10176;BME280;18221;38.704;0.152;2023-08-24T08:49:20;98817.50;;;37.27;22.05
10176;BME280;18221;38.704;0.152;2023-08-24T08:51:50;98826.00;;;37.30;21.90
10176;BME280;18221;38.704;0.152;2023-08-24T08:54:18;98822.34;;;37.13;24.16
10176;BME280;18221;38.704;0.152;2023-08-24T08:56:47;98824.78;;;37.14;23.02
10176;BME280;18221;38.704;0.152;2023-08-24T08:59:16;98820.19;;;37.09;23.45
10176;BME280;18221;38.704;0.152;2023-08-24T09:01:46;98821.16;;;37.05;22.50
10176;BME280;18221;38.704;0.152;2023-08-24T09:04:17;98826.81;;;37.00;22.87
10176;BME280;18221;38.704;0.152;2023-08-24T09:06:45;98823.47;;;37.11;22.48
10176;BME280;18221;38.704;0.152;2023-08-24T09:09:15;98822.06;;;37.23;21.93
10176;BME280;18221;38.704;0.152;2023-08-24T09:11:44;98826.00;;;37.30;21.97
10176;BME280;18221;38.704;0.152;2023-08-24T09:14:14;98824.91;;;37.40;21.69
10176;BME280;18221;38.704;0.152;2023-08-24T09:16:42;98821.53;;;37.43;21.92
10176;BME280;18221;38.704;0.152;2023-08-24T09:19:12;98824.78;;;37.45;22.14
10176;BME280;18221;38.704;0.152;2023-08-24T09:21:40;98822.28;;;37.35;21.92
10176;BME280;18221;38.704;0.152;2023-08-24T09:24:11;98827.13;;;37.29;22.04
10176;BME280;18221;38.704;0.152;2023-08-24T09:26:41;98827.69;;;37.09;22.34
10176;BME280;18221;38.704;0.152;2023-08-24T09:29:14;98824.38;;;37.29;22.14
10176;BME280;18221;38.704;0.152;2023-08-24T09:31:42;98822.75;;;37.37;21.96
10176;BME280;18221;38.704;0.152;2023-08-24T09:34:11;98821.19;;;37.44;22.29
10176;BME280;18221;38.704;0.152;2023-08-24T09:36:40;98820.41;;;37.44;22.71
10176;BME280;18221;38.704;0.152;2023-08-24T09:39:08;98818.44;;;37.44;22.94
10176;BME280;18221;38.704;0.152;2023-08-24T09:41:41;98816.47;;;37.45;22.82
10176;BME280;18221;38.704;0.152;2023-08-24T09:44:09;98824.31;;;37.43;22.73
10176;BME280;18221;38.704;0.152;2023-08-24T09:46:39;98817.22;;;37.37;22.60
10176;BME280;18221;38.704;0.152;2023-08-24T09:49:09;98820.41;;;37.52;21.88
10176;BME280;18221;38.704;0.152;2023-08-24T09:51:39;98820.59;;;37.56;21.84
10176;BME280;18221;38.704;0.152;2023-08-24T09:54:09;98829.25;;;37.54;22.53
10176;BME280;18221;38.704;0.152;2023-08-24T09:56:41;98828.38;;;37.45;22.95
10176;BME280;18221;38.704;0.152;2023-08-24T09:59:14;98824.00;;;37.53;23.11
10176;BME280;18221;38.704;0.152;2023-08-24T10:01:46;98823.72;;;37.63;23.00
10176;BME280;18221;38.704;0.152;2023-08-24T10:04:17;98823.97;;;37.44;23.19
10176;BME280;18221;38.704;0.152;2023-08-24T10:06:51;98823.19;;;37.52;23.05
10176;BME280;18221;38.704;0.152;2023-08-24T10:09:27;98818.50;;;37.61;23.65
10176;BME280;18221;38.704;0.152;2023-08-24T10:12:02;98829.09;;;37.59;24.27
10176;BME280;18221;38.704;0.152;2023-08-24T10:14:39;98825.38;;;37.64;24.05
10176;BME280;18221;38.704;0.152;2023-08-24T10:17:11;98832.03;;;37.63;23.55
10176;BME280;18221;38.704;0.152;2023-08-24T10:19:41;98825.84;;;37.66;24.13
10176;BME280;18221;38.704;0.152;2023-08-24T10:22:11;98827.13;;;37.60;23.56
10176;BME280;18221;38.704;0.152;2023-08-24T10:24:39;98827.25;;;37.86;23.72
10176;BME280;18221;38.704;0.152;2023-08-24T10:27:13;98819.03;;;37.81;23.26
10176;BME280;18221;38.704;0.152;2023-08-24T10:29:41;98832.34;;;38.01;24.03
10176;BME280;18221;38.704;0.152;2023-08-24T10:32:10;98832.19;;;38.06;23.71
10176;BME280;18221;38.704;0.152;2023-08-24T10:34:38;98834.63;;;37.99;23.55
10176;BME280;18221;38.704;0.152;2023-08-24T10:37:09;98833.81;;;38.07;24.22
10176;BME280;18221;38.704;0.152;2023-08-24T10:39:44;98832.03;;;38.11;24.40
10176;BME280;18221;38.704;0.152;2023-08-24T10:42:14;98829.41;;;38.06;24.98
10176;BME280;18221;38.704;0.152;2023-08-24T10:44:45;98825.66;;;38.02;25.40
10176;BME280;18221;38.704;0.152;2023-08-24T10:47:15;98830.69;;;38.00;23.81
10176;BME280;18221;38.704;0.152;2023-08-24T10:49:45;98831.03;;;38.07;22.52
10176;BME280;18221;38.704;0.152;2023-08-24T10:52:26;98836.09;;;38.05;23.40
10176;BME280;18221;38.704;0.152;2023-08-24T10:55:00;98834.13;;;37.97;23.86
10176;BME280;18221;38.704;0.152;2023-08-24T10:57:36;98831.69;;;37.95;21.83
10176;BME280;18221;38.704;0.152;2023-08-24T11:00:08;98831.38;;;38.05;21.63
10176;BME280;18221;38.704;0.152;2023-08-24T11:02:45;98831.38;;;38.14;24.46
10176;BME280;18221;38.704;0.152;2023-08-24T11:05:20;98828.28;;;38.15;22.74
10176;BME280;18221;38.704;0.152;2023-08-24T11:07:54;98826.34;;;38.24;22.11
10176;BME280;18221;38.704;0.152;2023-08-24T11:10:24;98830.09;;;38.11;24.10
10176;BME280;18221;38.704;0.152;2023-08-24T11:13:11;98827.00;;;38.30;23.88
10176;BME280;18221;38.704;0.152;2023-08-24T11:15:41;98818.66;;;38.21;25.39
10176;BME280;18221;38.704;0.152;2023-08-24T11:18:23;98823.22;;;38.17;24.59
10176;BME280;18221;38.704;0.152;2023-08-24T11:20:54;98815.69;;;38.09;26.02
10176;BME280;18221;38.704;0.152;2023-08-24T11:23:24;98815.06;;;38.21;25.24
10176;BME280;18221;38.704;0.152;2023-08-24T11:25:54;98816.19;;;38.20;25.37
10176;BME280;18221;38.704;0.152;2023-08-24T11:28:26;98813.44;;;38.20;25.81
10176;BME280;18221;38.704;0.152;2023-08-24T11:30:56;98813.59;;;38.23;26.72
10176;BME280;18221;38.704;0.152;2023-08-24T11:33:31;98817.88;;;38.29;26.16
10176;BME280;18221;38.704;0.152;2023-08-24T11:36:01;98823.56;;;38.24;26.07
10176;BME280;18221;38.704;0.152;2023-08-24T11:38:40;98817.53;;;38.14;26.93
10176;BME280;18221;38.704;0.152;2023-08-24T11:41:12;98816.84;;;38.00;28.18
10176;BME280;18221;38.704;0.152;2023-08-24T11:43:43;98812.19;;;37.78;28.19
10176;BME280;18221;38.704;0.152;2023-08-24T11:46:11;98808.97;;;37.85;28.08
10176;BME280;18221;38.704;0.152;2023-08-24T11:48:40;98808.19;;;37.93;28.84
10176;BME280;18221;38.704;0.152;2023-08-24T11:51:10;98805.44;;;38.01;28.06
10176;BME280;18221;38.704;0.152;2023-08-24T11:53:40;98808.22;;;38.10;27.58
10176;BME280;18221;38.704;0.152;2023-08-24T11:56:09;98807.06;;;38.11;27.51
10176;BME280;18221;38.704;0.152;2023-08-24T11:58:43;98813.75;;;38.10;27.49
10176;BME280;18221;38.704;0.152;2023-08-24T12:01:16;98805.59;;;38.05;27.36
10176;BME280;18221;38.704;0.152;2023-08-24T12:03:44;98805.44;;;38.18;27.45
10176;BME280;18221;38.704;0.152;2023-08-24T12:06:14;98807.25;;;38.06;27.62
10176;BME280;18221;38.704;0.152;2023-08-24T12:08:45;98803.28;;;37.90;28.18
10176;BME280;18221;38.704;0.152;2023-08-24T12:11:15;98796.06;;;37.80;28.36
10176;BME280;18221;38.704;0.152;2023-08-24T12:13:52;98802.00;;;37.96;27.26
10176;BME280;18221;38.704;0.152;2023-08-24T12:16:22;98801.16;;;37.87;28.68
10176;BME280;18221;38.704;0.152;2023-08-24T12:18:53;98802.66;;;37.93;28.20
10176;BME280;18221;38.704;0.152;2023-08-24T12:21:22;98797.94;;;38.10;26.62
10176;BME280;18221;38.704;0.152;2023-08-24T12:23:58;98803.34;;;38.24;25.58
10176;BME280;18221;38.704;0.152;2023-08-24T12:26:28;98796.16;;;38.06;25.33
10176;BME280;18221;38.704;0.152;2023-08-24T12:29:01;98805.44;;;38.01;26.82
10176;BME280;18221;38.704;0.152;2023-08-24T12:31:32;98808.50;;;37.91;25.88
10176;BME280;18221;38.704;0.152;2023-08-24T12:34:02;98817.63;;;37.92;25.15
10176;BME280;18221;38.704;0.152;2023-08-24T12:36:35;98814.56;;;38.10;25.52
10176;BME280;18221;38.704;0.152;2023-08-24T12:39:04;98809.84;;;38.11;25.70
10176;BME280;18221;38.704;0.152;2023-08-24T12:41:32;98812.13;;;38.09;26.37
10176;BME280;18221;38.704;0.152;2023-08-24T12:44:02;98803.31;;;38.07;26.67
10176;BME280;18221;38.704;0.152;2023-08-24T12:46:31;98801.84;;;38.09;26.92
10176;BME280;18221;38.704;0.152;2023-08-24T12:48:59;98803.97;;;38.04;27.53
10176;BME280;18221;38.704;0.152;2023-08-24T12:51:28;98800.88;;;38.22;27.21
10176;BME280;18221;38.704;0.152;2023-08-24T12:53:56;98806.91;;;38.07;27.62
10176;BME280;18221;38.704;0.152;2023-08-24T12:56:24;98794.19;;;38.15;27.28
10176;BME280;18221;38.704;0.152;2023-08-24T12:58:52;98786.69;;;38.24;26.79
10176;BME280;18221;38.704;0.152;2023-08-24T13:01:22;98796.78;;;38.20;26.33
10176;BME280;18221;38.704;0.152;2023-08-24T13:03:50;98790.13;;;38.04;26.95
10176;BME280;18221;38.704;0.152;2023-08-24T13:06:18;98796.31;;;38.01;25.81
10176;BME280;18221;38.704;0.152;2023-08-24T13:08:45;98785.38;;;38.13;27.24
10176;BME280;18221;38.704;0.152;2023-08-24T13:11:14;98782.44;;;38.18;27.05
10176;BME280;18221;38.704;0.152;2023-08-24T13:13:42;98786.88;;;38.27;26.37
10176;BME280;18221;38.704;0.152;2023-08-24T13:16:13;98785.88;;;38.06;26.50
10176;BME280;18221;38.704;0.152;2023-08-24T13:18:44;98792.22;;;38.07;26.29
10176;BME280;18221;38.704;0.152;2023-08-24T13:21:12;98780.81;;;38.25;26.58
10176;BME280;18221;38.704;0.152;2023-08-24T13:23:40;98783.59;;;38.17;26.05